To NAV CANADA Home Page Login to a new session Search on AWWS site Feedback and Comments Disclaimer Vers la page française équivalente Tips FAQ What's new on the site To the Forecasts and Observations / NOTAM section To "File a Flight Plan" website Publications and other links Update of the User's profile FIC Telephone Numbers My Weather Data Folder Route Weather Data Regional Weather Data Local Weather Data To the Forecasts and Observations / NOTAM section
Request Generated 04/24/2014 at 20:55:41 UTC . Weather information available at that time is displayed.

METAR/TAF

KANGIRSUK/QC    

METAR CYAS 242000Z CCA 03015KT 15SM -SN BKN018 M05/M07 A3028 RMK SC6 SLP268=
METAR CYAS 242000Z 03015KT 15SM -SN BKN018 M05/M07 A3028 RMK SC6 SLP268=
METAR CYAS 241900Z 02015KT 15SM -SN BKN020 M05/M07 A3028 RMK SC5 SLP269=
METAR CYAS 241900Z CCA 02015KT 15SM -SN BKN020 M05/M07 A3028 RMK SC5 SLP269=
METAR CYAS 241800Z 03011KT 15SM -SN BKN018 M05/M07 A3029 RMK SC6 SLP270=
METAR CYAS 241800Z CCA 03011KT 15SM -SN BKN018 M05/M07 A3029 RMK SC6 SLP270=

CYAS - No TAF is issued for this station

Your time UTC time
Weather data provided by Environment Canada and NAV CANADA